Time;durP1;ratioP1;P1;durP2;ratioP2;P2;SDS_P1;SDS_P2;PMS_P1;PMS_P2;Temp;Humidity;BMP_temperature;BMP_pressure;BME280_temperature;BME280_humidity;BME280_pressure;Samples;Min_cycle;Max_cycle;Signal;HPM_P1;HPM_P2
2022/08/03 00:01:00;;;;;;;;;;;22.10;89.00;;;;;;5073711;28;20481;-56
2022/08/03 00:03:25;;;;;;;;;;;22.00;89.30;;;;;;5074384;28;20406;-55
2022/08/03 00:05:51;;;;;;;;;;;21.90;89.40;;;;;;5073996;28;19976;-58
2022/08/03 00:08:17;;;;;;;;;;;21.90;89.40;;;;;;5072740;28;19917;-53
2022/08/03 00:10:42;;;;;;;;;;;21.90;89.60;;;;;;5074690;28;19920;-54
2022/08/03 00:13:08;;;;;;;;;;;22.00;89.80;;;;;;5069200;28;19916;-54
2022/08/03 00:15:34;;;;;;;;;;;22.00;90.00;;;;;;5073928;28;20489;-57
2022/08/03 00:17:59;;;;;;;;;;;22.10;89.90;;;;;;5063804;28;20330;-56
2022/08/03 00:20:25;;;;;;;;;;;22.20;90.00;;;;;;5072625;28;19912;-54
2022/08/03 00:22:50;;;;;;;;;;;22.30;89.70;;;;;;5073323;28;19966;-58
2022/08/03 00:25:16;;;;;;;;;;;22.30;89.70;;;;;;5073757;28;19913;-56
2022/08/03 00:27:42;;;;;;;;;;;22.20;90.00;;;;;;5071997;28;19913;-55
2022/08/03 00:30:07;;;;;;;;;;;22.30;90.10;;;;;;5073117;28;19908;-54
2022/08/03 00:32:33;;;;;;;;;;;22.20;90.30;;;;;;5055954;28;20478;-54
2022/08/03 00:35:01;;;;;;;;;;;22.30;90.50;;;;;;5069396;28;20435;-56
2022/08/03 00:37:27;;;;;;;;;;;22.30;90.60;;;;;;5071822;28;19923;-52
2022/08/03 00:39:52;;;;;;;;;;;22.30;90.60;;;;;;5073821;28;20327;-56
2022/08/03 00:42:18;;;;;;;;;;;22.20;90.30;;;;;;5073380;28;19917;-54
2022/08/03 00:44:59;;;;;;;;;;;22.30;90.40;;;;;;5073420;28;20324;-53
2022/08/03 00:47:25;;;;;;;;;;;22.30;90.60;;;;;;5055292;28;19913;-56
2022/08/03 00:49:50;;;;;;;;;;;22.20;90.70;;;;;;5057444;28;19916;-56
2022/08/03 00:52:16;;;;;;;;;;;22.20;90.80;;;;;;5073628;28;19921;-56
2022/08/03 00:54:41;;;;;;;;;;;22.20;90.90;;;;;;5073820;28;19913;-55
2022/08/03 00:57:07;;;;;;;;;;;22.20;90.90;;;;;;5072992;28;19938;-54
2022/08/03 00:59:33;;;;;;;;;;;22.20;90.90;;;;;;5074204;28;20314;-57
2022/08/03 01:02:02;;;;;;;;;;;22.20;90.70;;;;;;5072772;28;19974;-53
2022/08/03 01:04:27;;;;;;;;;;;22.20;90.70;;;;;;5073781;28;19916;-55
2022/08/03 01:06:58;;;;;;;;;;;22.10;90.10;;;;;;5072349;28;20394;-53
2022/08/03 01:09:30;;;;;;;;;;;22.00;86.00;;;;;;5073674;28;20316;-52
2022/08/03 01:12:02;;;;;;;;;;;21.80;87.60;;;;;;5060961;28;19913;-56
2022/08/03 01:14:33;;;;;;;;;;;21.60;88.60;;;;;;5065384;28;20068;-54
2022/08/03 01:17:03;;;;;;;;;;;21.50;88.60;;;;;;5073201;28;19923;-56
2022/08/03 01:19:47;;;;;;;;;;;21.40;89.70;;;;;;5074312;28;19921;-57
2022/08/03 01:22:31;;;;;;;;;;;21.30;89.80;;;;;;5073447;28;19913;-56
2022/08/03 01:25:23;;;;;;;;;;;21.30;90.20;;;;;;5074221;28;19912;-52
2022/08/03 01:28:04;;;;;;;;;;;21.30;90.40;;;;;;5052930;28;19913;-57
2022/08/03 01:30:30;;;;;;;;;;;21.40;90.50;;;;;;5070843;28;19930;-57
2022/08/03 01:32:59;;;;;;;;;;;21.40;90.40;;;;;;5073471;28;19913;-58
2022/08/03 01:35:49;;;;;;;;;;;21.50;90.30;;;;;;5071970;28;19916;-53
2022/08/03 01:38:20;;;;;;;;;;;21.50;90.20;;;;;;5073775;28;19916;-54
2022/08/03 01:40:47;;;;;;;;;;;21.50;90.40;;;;;;5068137;28;19916;-51
2022/08/03 01:43:16;;;;;;;;;;;21.50;90.50;;;;;;5054227;28;19916;-55
2022/08/03 01:45:42;;;;;;;;;;;21.50;90.70;;;;;;5056918;28;19920;-54
2022/08/03 01:48:08;;;;;;;;;;;21.40;90.30;;;;;;5072285;28;19916;-51
2022/08/03 01:50:34;;;;;;;;;;;21.40;89.30;;;;;;5070233;28;19917;-54
2022/08/03 01:53:00;;;;;;;;;;;21.40;89.20;;;;;;5052221;28;19927;-55
2022/08/03 01:55:27;;;;;;;;;;;21.30;89.60;;;;;;5053645;28;20185;-52
2022/08/03 01:57:54;;;;;;;;;;;21.30;89.90;;;;;;5067856;28;19913;-51
2022/08/03 02:00:19;;;;;;;;;;;21.30;89.80;;;;;;5054700;28;19956;-52
2022/08/03 02:02:48;;;;;;;;;;;21.30;90.00;;;;;;5053693;28;19962;-53
2022/08/03 02:05:14;;;;;;;;;;;21.20;90.00;;;;;;5065952;28;19975;-54
2022/08/03 02:07:41;;;;;;;;;;;21.20;89.40;;;;;;5072049;28;19912;-53
2022/08/03 02:10:08;;;;;;;;;;;21.20;89.20;;;;;;5060347;28;19917;-55
2022/08/03 02:12:35;;;;;;;;;;;21.20;88.50;;;;;;5062518;28;19959;-54
2022/08/03 02:15:01;;;;;;;;;;;21.20;88.70;;;;;;5070943;28;19916;-56
2022/08/03 02:17:27;;;;;;;;;;;21.10;89.00;;;;;;5071782;28;20033;-55
2022/08/03 02:19:55;;;;;;;;;;;21.10;88.80;;;;;;5071746;28;19940;-55
2022/08/03 02:22:21;;;;;;;;;;;21.10;88.90;;;;;;5072443;28;19909;-53
2022/08/03 02:24:48;;;;;;;;;;;21.10;87.80;;;;;;5063605;28;19921;-55
2022/08/03 02:27:25;;;;;;;;;;;21.10;87.60;;;;;;5051364;28;19963;-52
2022/08/03 02:30:09;;;;;;;;;;;21.00;87.80;;;;;;5060977;28;19920;-52
2022/08/03 02:32:36;;;;;;;;;;;21.00;88.10;;;;;;5072708;28;19915;-52
2022/08/03 02:35:03;;;;;;;;;;;21.00;89.10;;;;;;5062353;28;20403;-55
2022/08/03 02:37:31;;;;;;;;;;;21.00;88.50;;;;;;5051340;28;20288;-51
2022/08/03 02:39:58;;;;;;;;;;;20.90;88.30;;;;;;5051791;28;19925;-55
2022/08/03 02:42:24;;;;;;;;;;;20.90;89.40;;;;;;5051312;28;19944;-55
2022/08/03 02:44:50;;;;;;;;;;;21.00;90.30;;;;;;5066278;28;19977;-51
2022/08/03 02:47:19;;;;;;;;;;;20.90;89.50;;;;;;5071030;28;19916;-55
2022/08/03 02:49:46;;;;;;;;;;;20.80;88.70;;;;;;5064764;28;19921;-54
2022/08/03 02:52:12;;;;;;;;;;;20.80;88.40;;;;;;5068825;28;20388;-54
2022/08/03 02:54:38;;;;;;;;;;;20.80;89.60;;;;;;5067982;28;20336;-55
2022/08/03 02:57:06;;;;;;;;;;;20.80;90.10;;;;;;5070376;28;20002;-54
2022/08/03 02:59:32;;;;;;;;;;;20.80;89.60;;;;;;5069753;28;19917;-55
2022/08/03 03:01:59;;;;;;;;;;;20.70;89.20;;;;;;5069702;28;19920;-50
2022/08/03 03:04:25;;;;;;;;;;;20.70;89.20;;;;;;5067628;28;20011;-52
2022/08/03 03:06:51;;;;;;;;;;;20.70;89.30;;;;;;5070335;28;19967;-50
2022/08/03 03:09:17;;;;;;;;;;;20.70;89.40;;;;;;5069448;28;19983;-52
2022/08/03 03:11:43;;;;;;;;;;;20.80;89.50;;;;;;5070527;28;19914;-54
2022/08/03 03:14:09;;;;;;;;;;;20.80;88.90;;;;;;5071798;28;20006;-54
2022/08/03 03:16:35;;;;;;;;;;;20.80;89.30;;;;;;5072490;28;19916;-51
2022/08/03 03:19:00;;;;;;;;;;;20.80;89.20;;;;;;5072422;28;19921;-52
2022/08/03 03:21:26;;;;;;;;;;;20.90;89.30;;;;;;5066681;28;19924;-55
2022/08/03 03:23:52;;;;;;;;;;;20.90;89.30;;;;;;5070601;28;20047;-54
2022/08/03 03:26:18;;;;;;;;;;;20.90;89.50;;;;;;5072600;28;19963;-56
2022/08/03 03:28:44;;;;;;;;;;;20.90;89.70;;;;;;5071687;28;19973;-55
2022/08/03 03:31:10;;;;;;;;;;;20.80;89.60;;;;;;5074993;28;20354;-55
2022/08/03 03:33:36;;;;;;;;;;;20.80;89.60;;;;;;5075479;28;19956;-57
2022/08/03 03:36:03;;;;;;;;;;;20.80;89.60;;;;;;5076486;28;20380;-56
2022/08/03 03:38:29;;;;;;;;;;;20.90;89.30;;;;;;5067683;28;19920;-57
2022/08/03 03:40:54;;;;;;;;;;;20.90;89.00;;;;;;5059229;28;20284;-54
2022/08/03 03:43:22;;;;;;;;;;;20.90;88.50;;;;;;5073556;28;19977;-55
2022/08/03 03:45:48;;;;;;;;;;;20.90;88.80;;;;;;5073896;28;19916;-56
2022/08/03 03:48:13;;;;;;;;;;;20.90;90.00;;;;;;5074031;28;19912;-57
2022/08/03 03:50:42;;;;;;;;;;;20.90;90.30;;;;;;5074774;28;19966;-56
2022/08/03 03:53:09;;;;;;;;;;;20.80;90.40;;;;;;5075805;28;19955;-54
2022/08/03 03:55:34;;;;;;;;;;;20.80;90.70;;;;;;5075378;28;19909;-57
2022/08/03 03:58:00;;;;;;;;;;;20.70;91.30;;;;;;5073935;28;19924;-55
2022/08/03 04:00:25;;;;;;;;;;;20.60;91.60;;;;;;5072808;28;19927;-53
2022/08/03 04:02:51;;;;;;;;;;;20.60;91.70;;;;;;5072415;28;20015;-52
2022/08/03 04:10:57;;;;;;;;;;;20.80;90.50;;;;;;5072949;28;20376;-55
2022/08/03 04:13:24;;;;;;;;;;;20.70;90.30;;;;;;5069830;28;19928;-53
2022/08/03 04:15:50;;;;;;;;;;;20.70;90.20;;;;;;5072100;28;19919;-53
2022/08/03 04:18:17;;;;;;;;;;;20.70;90.00;;;;;;5070958;28;19913;-54
2022/08/03 04:20:44;;;;;;;;;;;20.70;89.70;;;;;;5073285;28;20003;-55
2022/08/03 04:23:10;;;;;;;;;;;20.70;90.30;;;;;;5073629;28;19917;-52
2022/08/03 04:25:38;;;;;;;;;;;20.80;91.00;;;;;;5072799;28;19916;-54
2022/08/03 04:28:03;;;;;;;;;;;20.80;91.30;;;;;;5072037;28;19913;-49
2022/08/03 04:30:30;;;;;;;;;;;20.80;90.70;;;;;;5072843;28;19919;-54
2022/08/03 04:32:56;;;;;;;;;;;20.70;90.00;;;;;;5074119;28;19908;-55
2022/08/03 04:35:23;;;;;;;;;;;20.60;90.20;;;;;;5072200;28;20313;-54
2022/08/03 04:37:50;;;;;;;;;;;20.70;90.50;;;;;;5072043;28;19923;-55
2022/08/03 04:40:21;;;;;;;;;;;20.70;90.60;;;;;;5071840;28;20411;-52
2022/08/03 04:42:47;;;;;;;;;;;20.80;90.90;;;;;;5071467;28;19917;-54
2022/08/03 04:45:14;;;;;;;;;;;20.90;90.90;;;;;;5074045;28;20007;-53
2022/08/03 04:47:40;;;;;;;;;;;20.90;90.60;;;;;;5068776;28;19927;-54
2022/08/03 04:50:06;;;;;;;;;;;21.00;90.40;;;;;;5072293;28;19913;-54
2022/08/03 04:52:32;;;;;;;;;;;21.00;90.20;;;;;;5073685;28;19908;-58
2022/08/03 04:54:58;;;;;;;;;;;21.10;90.50;;;;;;5072910;28;19970;-54
2022/08/03 04:57:23;;;;;;;;;;;21.10;90.70;;;;;;5072624;28;20514;-56
2022/08/03 04:59:55;;;;;;;;;;;21.10;91.00;;;;;;5073137;28;19916;-55
2022/08/03 05:02:21;;;;;;;;;;;21.10;91.20;;;;;;5074209;28;19920;-57
2022/08/03 05:04:47;;;;;;;;;;;21.20;91.10;;;;;;5065290;28;19921;-52
2022/08/03 05:07:13;;;;;;;;;;;21.30;91.00;;;;;;5053767;28;19916;-53
2022/08/03 05:09:38;;;;;;;;;;;21.30;90.70;;;;;;5060673;28;19917;-55
2022/08/03 05:12:05;;;;;;;;;;;21.30;90.00;;;;;;5072626;28;20543;-55
2022/08/03 05:14:31;;;;;;;;;;;21.30;88.00;;;;;;5067461;28;20322;-55
2022/08/03 05:16:56;;;;;;;;;;;21.30;87.20;;;;;;5073010;28;19916;-54
2022/08/03 05:19:22;;;;;;;;;;;21.40;86.80;;;;;;5073195;28;19922;-57
2022/08/03 05:21:48;;;;;;;;;;;21.40;87.00;;;;;;5074114;28;19912;-54
2022/08/03 05:24:13;;;;;;;;;;;21.50;87.20;;;;;;5059550;28;20016;-53
2022/08/03 05:26:39;;;;;;;;;;;21.50;87.10;;;;;;5053947;28;19966;-55
2022/08/03 05:29:04;;;;;;;;;;;21.60;87.10;;;;;;5067095;28;19958;-56
2022/08/03 05:31:30;;;;;;;;;;;21.60;87.20;;;;;;5073861;28;19913;-53
2022/08/03 05:33:55;;;;;;;;;;;21.60;87.10;;;;;;5062695;28;19916;-54
2022/08/03 05:36:21;;;;;;;;;;;21.70;86.90;;;;;;5062665;28;19958;-54
2022/08/03 05:38:47;;;;;;;;;;;21.70;86.80;;;;;;5072816;28;19916;-54
2022/08/03 05:41:12;;;;;;;;;;;21.70;86.10;;;;;;5073545;28;20443;-55
2022/08/03 05:43:38;;;;;;;;;;;21.80;86.40;;;;;;5072090;28;20346;-52
2022/08/03 05:46:03;;;;;;;;;;;21.80;85.80;;;;;;5071466;28;19912;-57
2022/08/03 05:48:29;;;;;;;;;;;21.90;85.90;;;;;;5070966;28;19921;-52
2022/08/03 05:50:54;;;;;;;;;;;21.90;85.40;;;;;;5071325;28;19955;-52
2022/08/03 05:53:20;;;;;;;;;;;21.90;85.30;;;;;;5071392;28;19924;-54
2022/08/03 05:55:45;;;;;;;;;;;21.80;85.40;;;;;;5072510;28;19916;-54
2022/08/03 05:58:11;;;;;;;;;;;21.80;85.50;;;;;;5058032;28;19970;-56
2022/08/03 06:00:37;;;;;;;;;;;21.80;85.20;;;;;;5071787;28;20284;-53
2022/08/03 06:03:02;;;;;;;;;;;21.80;85.00;;;;;;5073088;28;20379;-56
2022/08/03 06:05:28;;;;;;;;;;;21.90;84.70;;;;;;5068929;28;20319;-56
2022/08/03 06:07:53;;;;;;;;;;;22.00;84.90;;;;;;5053694;28;19908;-57
2022/08/03 06:10:19;;;;;;;;;;;22.10;84.80;;;;;;5055831;28;20003;-57
2022/08/03 06:12:48;;;;;;;;;;;22.20;85.20;;;;;;5067897;28;19913;-56
2022/08/03 06:15:14;;;;;;;;;;;22.30;84.70;;;;;;5072878;28;19925;-54
2022/08/03 06:17:47;;;;;;;;;;;22.40;84.30;;;;;;5073753;28;20393;-57
2022/08/03 06:20:12;;;;;;;;;;;22.40;83.70;;;;;;5071742;28;20484;-57
2022/08/03 06:22:38;;;;;;;;;;;22.50;83.50;;;;;;5072538;28;19917;-55
2022/08/03 06:25:05;;;;;;;;;;;22.60;82.80;;;;;;5061773;28;19952;-54
2022/08/03 06:27:30;;;;;;;;;;;22.70;82.40;;;;;;5051888;28;19908;-57
2022/08/03 06:29:56;;;;;;;;;;;22.70;82.10;;;;;;5065095;28;19931;-56
2022/08/03 06:32:21;;;;;;;;;;;22.80;81.80;;;;;;5070216;28;19917;-57
2022/08/03 06:34:47;;;;;;;;;;;23.00;81.40;;;;;;5073249;28;19916;-56
2022/08/03 06:37:13;;;;;;;;;;;23.10;81.00;;;;;;5073694;28;19928;-58
2022/08/03 06:39:38;;;;;;;;;;;23.20;80.40;;;;;;5068204;28;19913;-56
2022/08/03 06:42:04;;;;;;;;;;;23.20;80.30;;;;;;5071546;28;19912;-56
2022/08/03 06:44:29;;;;;;;;;;;23.20;80.30;;;;;;5072282;28;19919;-53
2022/08/03 06:46:55;;;;;;;;;;;23.30;80.50;;;;;;5072490;28;19913;-56
2022/08/03 06:49:21;;;;;;;;;;;23.40;80.70;;;;;;5072431;28;20544;-55
2022/08/03 06:51:46;;;;;;;;;;;23.40;80.90;;;;;;5053945;28;19927;-56
2022/08/03 06:54:12;;;;;;;;;;;23.50;80.70;;;;;;5053920;28;19913;-56
2022/08/03 06:56:37;;;;;;;;;;;23.60;80.70;;;;;;5072330;28;20004;-57
2022/08/03 06:59:03;;;;;;;;;;;23.70;80.40;;;;;;5074000;28;20435;-54
2022/08/03 07:01:28;;;;;;;;;;;23.80;79.80;;;;;;5055317;28;19921;-56
2022/08/03 07:03:55;;;;;;;;;;;24.00;79.80;;;;;;5053581;28;19924;-55
2022/08/03 07:06:20;;;;;;;;;;;24.10;80.10;;;;;;5071431;28;19921;-54
2022/08/03 07:08:46;;;;;;;;;;;24.20;80.10;;;;;;5073173;28;19931;-53
2022/08/03 07:11:11;;;;;;;;;;;24.20;79.90;;;;;;5053320;28;19930;-56
2022/08/03 07:13:40;;;;;;;;;;;24.30;79.40;;;;;;5058674;28;19912;-56
2022/08/03 07:16:05;;;;;;;;;;;24.40;79.40;;;;;;5061747;28;19917;-53
2022/08/03 07:18:31;;;;;;;;;;;24.40;78.00;;;;;;5056106;28;20521;-56
2022/08/03 07:20:56;;;;;;;;;;;24.50;78.40;;;;;;5071617;28;19962;-55
2022/08/03 07:23:22;;;;;;;;;;;24.50;77.30;;;;;;5069043;28;20050;-59
2022/08/03 07:25:47;;;;;;;;;;;24.60;78.70;;;;;;5051201;28;20016;-53
2022/08/03 07:28:13;;;;;;;;;;;24.70;79.10;;;;;;5069614;28;19923;-53
2022/08/03 07:30:39;;;;;;;;;;;24.80;78.60;;;;;;5072018;28;19912;-53
2022/08/03 07:33:04;;;;;;;;;;;24.90;78.40;;;;;;5070454;28;19920;-53
2022/08/03 07:35:30;;;;;;;;;;;25.10;78.60;;;;;;5070949;28;19924;-56
2022/08/03 07:37:55;;;;;;;;;;;25.20;77.60;;;;;;5071449;28;19958;-58
2022/08/03 07:40:21;;;;;;;;;;;25.20;74.90;;;;;;5070578;28;19924;-53
2022/08/03 07:42:46;;;;;;;;;;;25.20;75.40;;;;;;5071917;28;19917;-54
2022/08/03 07:45:12;;;;;;;;;;;25.40;75.60;;;;;;5070789;28;19920;-55
2022/08/03 07:47:37;;;;;;;;;;;25.50;74.60;;;;;;5061224;28;19913;-56
2022/08/03 07:50:04;;;;;;;;;;;25.60;73.70;;;;;;5061193;28;19916;-55
2022/08/03 07:52:48;;;;;;;;;;;25.70;74.00;;;;;;5077243;28;19920;-53
2022/08/03 07:55:14;;;;;;;;;;;25.70;74.40;;;;;;5068128;28;19920;-57
2022/08/03 07:57:39;;;;;;;;;;;25.90;74.60;;;;;;5071587;28;19913;-53
2022/08/03 08:00:07;;;;;;;;;;;25.90;72.50;;;;;;5064187;28;19923;-53
2022/08/03 08:02:33;;;;;;;;;;;26.00;73.00;;;;;;5051673;28;20376;-51
2022/08/03 08:04:58;;;;;;;;;;;26.10;72.60;;;;;;5055687;28;19921;-57
2022/08/03 08:07:25;;;;;;;;;;;26.20;72.30;;;;;;5070450;28;20015;-57
2022/08/03 08:09:50;;;;;;;;;;;26.30;72.20;;;;;;5054958;28;19917;-56
2022/08/03 08:12:16;;;;;;;;;;;26.40;71.50;;;;;;5069124;28;20020;-53
2022/08/03 08:14:44;;;;;;;;;;;26.40;71.40;;;;;;5067652;28;19917;-56
2022/08/03 08:17:10;;;;;;;;;;;26.60;70.10;;;;;;5073558;28;19915;-55
2022/08/03 08:19:35;;;;;;;;;;;26.60;70.10;;;;;;5074964;28;19912;-55
2022/08/03 08:22:01;;;;;;;;;;;26.70;69.50;;;;;;5075239;28;20288;-57
2022/08/03 08:24:29;;;;;;;;;;;26.80;69.50;;;;;;5056322;28;19964;-56
2022/08/03 08:26:55;;;;;;;;;;;26.80;69.00;;;;;;5070024;28;20456;-56
2022/08/03 08:29:22;;;;;;;;;;;27.00;69.20;;;;;;5073896;28;20011;-53
2022/08/03 08:31:48;;;;;;;;;;;27.00;69.10;;;;;;5074936;28;19913;-57
2022/08/03 08:34:14;;;;;;;;;;;27.10;68.00;;;;;;5074310;28;19943;-56
2022/08/03 08:36:40;;;;;;;;;;;27.10;67.90;;;;;;5073496;28;20066;-55
2022/08/03 08:39:06;;;;;;;;;;;27.20;67.80;;;;;;5072814;28;19966;-56
2022/08/03 08:41:33;;;;;;;;;;;27.30;66.70;;;;;;5074025;28;20344;-57
2022/08/03 08:43:59;;;;;;;;;;;27.30;66.40;;;;;;5073165;28;20287;-56
2022/08/03 08:46:25;;;;;;;;;;;27.50;66.20;;;;;;5074602;28;20287;-55
2022/08/03 08:48:51;;;;;;;;;;;27.50;66.80;;;;;;5073176;28;19917;-56
2022/08/03 08:51:18;;;;;;;;;;;27.60;66.20;;;;;;5073750;28;19924;-55
2022/08/03 08:53:44;;;;;;;;;;;27.70;66.30;;;;;;5074187;28;19958;-56
2022/08/03 08:56:14;;;;;;;;;;;27.80;65.20;;;;;;5074144;28;19916;-56
2022/08/03 08:58:43;;;;;;;;;;;27.70;65.60;;;;;;5073698;28;19912;-56
2022/08/03 09:01:08;;;;;;;;;;;27.70;65.40;;;;;;5074464;28;20265;-53
2022/08/03 09:03:34;;;;;;;;;;;27.90;64.70;;;;;;5074947;28;19927;-53
2022/08/03 09:06:01;;;;;;;;;;;28.00;63.30;;;;;;5073650;28;20363;-53
2022/08/03 09:08:27;;;;;;;;;;;28.10;63.00;;;;;;5072038;28;19929;-56
2022/08/03 09:10:53;;;;;;;;;;;28.20;63.20;;;;;;5073122;28;20294;-54
2022/08/03 09:13:18;;;;;;;;;;;28.30;63.10;;;;;;5068579;28;19916;-52
2022/08/03 09:15:45;;;;;;;;;;;28.40;62.50;;;;;;5072402;28;19913;-57
2022/08/03 09:18:11;;;;;;;;;;;28.30;62.40;;;;;;5070755;28;19971;-54
2022/08/03 09:20:37;;;;;;;;;;;28.40;62.40;;;;;;5072552;28;19932;-55
2022/08/03 09:23:04;;;;;;;;;;;28.50;62.70;;;;;;5071445;28;19919;-52
2022/08/03 09:25:36;;;;;;;;;;;28.60;62.90;;;;;;5072254;28;19916;-51
2022/08/03 09:28:12;;;;;;;;;;;28.70;62.00;;;;;;5069259;28;19913;-54
2022/08/03 09:30:42;;;;;;;;;;;28.70;61.90;;;;;;5072223;28;19916;-52
2022/08/03 09:33:08;;;;;;;;;;;28.70;61.70;;;;;;5072740;28;19919;-48
2022/08/03 09:35:41;;;;;;;;;;;28.80;62.00;;;;;;5073156;28;19912;-55
2022/08/03 09:38:07;;;;;;;;;;;28.80;61.20;;;;;;5070594;28;19927;-55
2022/08/03 09:40:34;;;;;;;;;;;28.90;61.30;;;;;;5068436;28;19999;-55
2022/08/03 09:43:00;;;;;;;;;;;29.00;61.30;;;;;;5072720;28;19920;-54
2022/08/03 09:45:26;;;;;;;;;;;29.10;61.10;;;;;;5073100;28;20337;-51
2022/08/03 09:47:52;;;;;;;;;;;29.20;60.90;;;;;;5070668;28;19999;-56
2022/08/03 09:50:17;;;;;;;;;;;29.30;60.90;;;;;;5071306;28;19999;-55
2022/08/03 09:52:46;;;;;;;;;;;29.30;60.70;;;;;;5070263;28;20191;-55
2022/08/03 09:55:13;;;;;;;;;;;29.30;61.00;;;;;;5071370;28;20424;-50
2022/08/03 09:57:45;;;;;;;;;;;29.30;60.80;;;;;;5071927;28;19999;-51
2022/08/03 10:00:12;;;;;;;;;;;29.40;60.50;;;;;;5071696;28;20387;-49
2022/08/03 10:02:38;;;;;;;;;;;29.60;60.30;;;;;;5072094;28;19928;-54
2022/08/03 10:05:05;;;;;;;;;;;29.60;60.60;;;;;;5071640;28;20307;-50
2022/08/03 10:07:40;;;;;;;;;;;29.70;60.20;;;;;;5071628;28;19916;-48
2022/08/03 10:10:06;;;;;;;;;;;29.80;59.80;;;;;;5072181;28;19923;-50
2022/08/03 10:12:32;;;;;;;;;;;29.90;60.30;;;;;;5072015;28;19924;-55
2022/08/03 10:14:58;;;;;;;;;;;29.90;60.00;;;;;;5071621;28;19917;-49
2022/08/03 10:17:23;;;;;;;;;;;30.00;59.90;;;;;;5071463;28;19928;-55
2022/08/03 10:19:49;;;;;;;;;;;30.10;60.10;;;;;;5071428;28;19920;-50
2022/08/03 10:22:21;;;;;;;;;;;30.10;60.00;;;;;;5072038;28;20276;-50
2022/08/03 10:25:02;;;;;;;;;;;30.00;59.00;;;;;;5070459;28;19942;-51
2022/08/03 10:27:32;;;;;;;;;;;30.00;59.30;;;;;;5067716;28;19966;-52
2022/08/03 10:30:00;;;;;;;;;;;30.00;59.40;;;;;;5072089;28;19924;-53
2022/08/03 10:32:34;;;;;;;;;;;30.20;59.20;;;;;;5070287;28;19927;-50
2022/08/03 10:35:04;;;;;;;;;;;30.20;58.60;;;;;;5068614;28;19912;-53
2022/08/03 10:37:31;;;;;;;;;;;30.10;59.20;;;;;;5067987;28;19986;-53
2022/08/03 10:39:58;;;;;;;;;;;30.30;59.00;;;;;;5069114;28;19923;-54
2022/08/03 10:42:25;;;;;;;;;;;30.00;58.50;;;;;;5070393;28;19916;-56
2022/08/03 10:44:54;;;;;;;;;;;29.90;58.00;;;;;;5073768;28;19930;-53
2022/08/03 10:47:20;;;;;;;;;;;29.90;58.30;;;;;;5068865;28;19913;-52
2022/08/03 10:49:47;;;;;;;;;;;29.80;58.50;;;;;;5069744;28;19927;-55
2022/08/03 10:52:12;;;;;;;;;;;29.70;58.40;;;;;;5070422;28;19913;-53
2022/08/03 10:57:33;;;;;;;;;;;29.80;58.70;;;;;;5069702;28;19918;-51
2022/08/03 10:57:44;;;;;;;;;;;29.90;58.40;;;;;;5070007;28;20419;-50
2022/08/03 11:00:10;;;;;;;;;;;30.00;58.10;;;;;;5069914;28;20272;-50
2022/08/03 11:03:05;;;;;;;;;;;30.00;57.80;;;;;;5070174;28;19917;-51
2022/08/03 11:05:32;;;;;;;;;;;29.90;58.10;;;;;;5068367;28;19967;-53
2022/08/03 11:08:16;;;;;;;;;;;30.10;57.60;;;;;;5068774;28;19976;-54
2022/08/03 11:10:41;;;;;;;;;;;30.10;57.90;;;;;;5070054;28;20395;-53
2022/08/03 11:13:08;;;;;;;;;;;30.30;58.20;;;;;;5069449;28;19921;-52
2022/08/03 11:15:34;;;;;;;;;;;30.50;58.20;;;;;;5069357;28;20007;-50
2022/08/03 11:18:09;;;;;;;;;;;30.50;58.00;;;;;;5069519;28;19917;-47
2022/08/03 11:20:47;;;;;;;;;;;30.70;57.90;;;;;;5069371;28;20297;-51
2022/08/03 11:23:14;;;;;;;;;;;30.70;57.70;;;;;;5069620;28;19928;-55
2022/08/03 11:26:07;;;;;;;;;;;30.60;57.40;;;;;;5067129;28;19912;-52
2022/08/03 11:28:32;;;;;;;;;;;30.60;57.00;;;;;;5067491;28;19916;-55
2022/08/03 11:31:18;;;;;;;;;;;30.60;56.60;;;;;;5069040;28;20387;-54
2022/08/03 11:34:01;;;;;;;;;;;30.60;57.20;;;;;;5067322;28;20360;-52
2022/08/03 11:36:27;;;;;;;;;;;30.60;57.00;;;;;;5069717;28;20009;-54
2022/08/03 11:39:11;;;;;;;;;;;30.70;57.20;;;;;;5066803;28;19959;-52
2022/08/03 11:41:36;;;;;;;;;;;30.90;56.80;;;;;;5069646;28;19913;-52
2022/08/03 11:44:02;;;;;;;;;;;30.90;56.00;;;;;;5067701;28;20449;-51
2022/08/03 11:46:35;;;;;;;;;;;30.80;56.30;;;;;;5070503;28;19961;-53
2022/08/03 11:49:03;;;;;;;;;;;30.90;55.90;;;;;;5072155;28;19938;-52
2022/08/03 11:51:29;;;;;;;;;;;30.90;55.50;;;;;;5070858;28;20401;-50
2022/08/03 11:53:56;;;;;;;;;;;30.80;55.70;;;;;;5071756;28;20338;-49
2022/08/03 11:56:22;;;;;;;;;;;30.90;56.20;;;;;;5073211;28;19916;-54
2022/08/03 11:58:48;;;;;;;;;;;31.10;55.40;;;;;;5072891;28;19970;-52
2022/08/03 12:01:15;;;;;;;;;;;31.20;55.20;;;;;;5073540;28;19920;-54
2022/08/03 12:03:41;;;;;;;;;;;31.20;55.20;;;;;;5072299;28;20005;-53
2022/08/03 12:06:10;;;;;;;;;;;31.40;54.30;;;;;;5074558;28;19964;-55
2022/08/03 12:08:36;;;;;;;;;;;31.40;54.90;;;;;;5075147;28;19913;-49
2022/08/03 12:11:04;;;;;;;;;;;31.40;53.60;;;;;;5072849;28;20007;-53
2022/08/03 12:13:42;;;;;;;;;;;31.30;53.40;;;;;;5071542;28;19917;-53
2022/08/03 12:16:08;;;;;;;;;;;31.30;53.70;;;;;;5069673;28;20418;-50
2022/08/03 12:18:34;;;;;;;;;;;31.40;53.80;;;;;;5064873;28;19917;-53
2022/08/03 12:21:04;;;;;;;;;;;31.40;53.90;;;;;;5065953;28;20356;-55
2022/08/03 12:23:29;;;;;;;;;;;31.60;53.40;;;;;;5053563;28;19919;-53
2022/08/03 12:26:00;;;;;;;;;;;31.60;52.40;;;;;;5053625;28;19909;-54
2022/08/03 12:28:25;;;;;;;;;;;31.60;52.50;;;;;;5053412;28;19913;-51
2022/08/03 12:30:51;;;;;;;;;;;31.70;52.30;;;;;;5054081;28;20376;-55
2022/08/03 12:33:19;;;;;;;;;;;31.70;52.60;;;;;;5055255;28;19931;-49
2022/08/03 12:35:46;;;;;;;;;;;31.70;52.20;;;;;;5053739;28;19920;-50
2022/08/03 12:38:12;;;;;;;;;;;31.90;52.00;;;;;;5055259;28;20003;-53
2022/08/03 12:40:37;;;;;;;;;;;31.70;51.40;;;;;;5055001;28;19944;-50
2022/08/03 12:43:09;;;;;;;;;;;31.50;51.80;;;;;;5055556;28;19909;-52
2022/08/03 12:45:35;;;;;;;;;;;31.60;51.60;;;;;;5074404;28;20420;-52
2022/08/03 12:48:01;;;;;;;;;;;31.60;52.00;;;;;;5073345;28;19958;-48
2022/08/03 12:50:30;;;;;;;;;;;31.80;51.90;;;;;;5074816;28;19961;-50
2022/08/03 12:52:57;;;;;;;;;;;31.80;51.90;;;;;;5074584;28;19915;-52
2022/08/03 12:55:22;;;;;;;;;;;32.00;52.20;;;;;;5073925;28;19974;-53
2022/08/03 12:57:48;;;;;;;;;;;32.20;52.30;;;;;;5060955;28;20315;-53
2022/08/03 13:00:15;;;;;;;;;;;32.30;52.70;;;;;;5053959;28;19917;-47
2022/08/03 13:02:40;;;;;;;;;;;32.50;52.10;;;;;;5057883;28;20485;-56
2022/08/03 13:05:10;;;;;;;;;;;32.60;51.90;;;;;;5077134;28;19916;-54
2022/08/03 13:07:40;;;;;;;;;;;32.30;52.10;;;;;;5071985;28;19924;-54
2022/08/03 13:10:06;;;;;;;;;;;32.10;51.80;;;;;;5070688;28;19916;-53
2022/08/03 13:12:32;;;;;;;;;;;32.10;51.80;;;;;;5072765;28;19987;-50
2022/08/03 13:14:58;;;;;;;;;;;32.10;51.70;;;;;;5072691;28;19913;-50
2022/08/03 13:17:23;;;;;;;;;;;32.50;52.10;;;;;;5070004;28;19921;-52
2022/08/03 13:19:49;;;;;;;;;;;32.80;52.80;;;;;;5072323;28;20291;-54
2022/08/03 13:22:22;;;;;;;;;;;33.10;52.70;;;;;;5072513;28;19977;-55
2022/08/03 13:24:49;;;;;;;;;;;33.20;52.80;;;;;;5072607;28;19929;-52
2022/08/03 13:27:15;;;;;;;;;;;33.40;52.00;;;;;;5071874;28;19916;-56
2022/08/03 13:29:42;;;;;;;;;;;33.50;51.50;;;;;;5073526;28;19920;-54
2022/08/03 13:32:08;;;;;;;;;;;33.50;51.40;;;;;;5072431;28;19917;-54
2022/08/03 13:34:33;;;;;;;;;;;33.40;50.80;;;;;;5071610;28;20299;-54
2022/08/03 13:36:59;;;;;;;;;;;33.30;51.40;;;;;;5071892;28;19919;-50
2022/08/03 13:39:24;;;;;;;;;;;33.50;51.40;;;;;;5071361;28;20019;-50
2022/08/03 13:41:50;;;;;;;;;;;33.40;50.70;;;;;;5071943;28;20020;-50
2022/08/03 13:44:15;;;;;;;;;;;33.50;51.20;;;;;;5072068;28;19928;-51
2022/08/03 13:46:41;;;;;;;;;;;33.60;50.30;;;;;;5071454;28;19917;-56
2022/08/03 13:49:06;;;;;;;;;;;33.80;50.60;;;;;;5072016;28;20019;-54
2022/08/03 13:51:32;;;;;;;;;;;33.80;50.70;;;;;;5071624;28;19958;-53
2022/08/03 13:54:01;;;;;;;;;;;33.50;50.80;;;;;;5070745;28;19920;-56
2022/08/03 13:56:26;;;;;;;;;;;33.60;50.50;;;;;;5069687;28;20376;-55
2022/08/03 13:58:52;;;;;;;;;;;33.90;50.20;;;;;;5071863;28;19923;-55
2022/08/03 14:01:18;;;;;;;;;;;33.90;50.40;;;;;;5072175;28;20507;-53
2022/08/03 14:03:45;;;;;;;;;;;34.20;50.30;;;;;;5071903;28;20015;-52
2022/08/03 14:06:10;;;;;;;;;;;34.40;49.70;;;;;;5070392;28;20032;-53
2022/08/03 14:08:36;;;;;;;;;;;34.50;50.60;;;;;;5071341;28;20428;-53
2022/08/03 14:11:02;;;;;;;;;;;34.80;50.30;;;;;;5070927;28;19923;-52
2022/08/03 14:13:28;;;;;;;;;;;35.00;50.50;;;;;;5072809;28;19916;-51
2022/08/03 14:15:54;;;;;;;;;;;35.00;49.40;;;;;;5070322;28;20260;-55
2022/08/03 14:18:20;;;;;;;;;;;35.10;50.00;;;;;;5071204;28;19924;-54
2022/08/03 14:20:46;;;;;;;;;;;35.30;49.60;;;;;;5071501;28;19913;-55
2022/08/03 14:23:11;;;;;;;;;;;35.50;49.40;;;;;;5071840;28;19912;-53